sensor_id;sensor_type;location;lat;lon;timestamp;temperature;humidity
7254;DHT22;4060;49.186;9.226;2023-02-12T00:00:10;7.90;66.70
7254;DHT22;4060;49.186;9.226;2023-02-12T00:02:42;7.90;66.90
7254;DHT22;4060;49.186;9.226;2023-02-12T00:05:12;7.90;67.00
7254;DHT22;4060;49.186;9.226;2023-02-12T00:07:45;7.90;67.00
7254;DHT22;4060;49.186;9.226;2023-02-12T00:10:15;7.90;67.00
7254;DHT22;4060;49.186;9.226;2023-02-12T00:12:44;7.90;67.00
7254;DHT22;4060;49.186;9.226;2023-02-12T00:15:13;7.90;66.90
7254;DHT22;4060;49.186;9.226;2023-02-12T00:17:43;7.90;67.00
7254;DHT22;4060;49.186;9.226;2023-02-12T00:20:12;7.90;67.00
7254;DHT22;4060;49.186;9.226;2023-02-12T00:22:43;7.90;67.00
7254;DHT22;4060;49.186;9.226;2023-02-12T00:25:15;7.90;67.00
7254;DHT22;4060;49.186;9.226;2023-02-12T00:27:44;7.90;66.90
7254;DHT22;4060;49.186;9.226;2023-02-12T00:30:15;7.90;66.90
7254;DHT22;4060;49.186;9.226;2023-02-12T00:32:45;7.90;66.90
7254;DHT22;4060;49.186;9.226;2023-02-12T00:35:14;7.90;67.70
7254;DHT22;4060;49.186;9.226;2023-02-12T00:37:46;7.90;66.90
7254;DHT22;4060;49.186;9.226;2023-02-12T00:40:16;7.90;66.90
7254;DHT22;4060;49.186;9.226;2023-02-12T00:42:45;7.90;66.90
7254;DHT22;4060;49.186;9.226;2023-02-12T00:45:16;7.90;67.00
7254;DHT22;4060;49.186;9.226;2023-02-12T00:47:45;7.90;67.00
7254;DHT22;4060;49.186;9.226;2023-02-12T00:50:15;7.80;67.00
7254;DHT22;4060;49.186;9.226;2023-02-12T00:52:46;7.90;67.10
7254;DHT22;4060;49.186;9.226;2023-02-12T00:55:16;7.90;67.10
7254;DHT22;4060;49.186;9.226;2023-02-12T00:57:45;7.80;67.00
7254;DHT22;4060;49.186;9.226;2023-02-12T01:00:29;7.80;67.10
7254;DHT22;4060;49.186;9.226;2023-02-12T01:03:03;7.80;67.10
7254;DHT22;4060;49.186;9.226;2023-02-12T01:05:35;7.90;67.30
7254;DHT22;4060;49.186;9.226;2023-02-12T01:08:09;7.90;67.40
7254;DHT22;4060;49.186;9.226;2023-02-12T01:10:39;7.80;67.20
7254;DHT22;4060;49.186;9.226;2023-02-12T01:13:11;7.90;67.40
7254;DHT22;4060;49.186;9.226;2023-02-12T01:15:40;7.80;67.20
7254;DHT22;4060;49.186;9.226;2023-02-12T01:18:10;7.90;67.40
7254;DHT22;4060;49.186;9.226;2023-02-12T01:20:39;7.80;67.30
7254;DHT22;4060;49.186;9.226;2023-02-12T01:23:11;7.80;67.30
7254;DHT22;4060;49.186;9.226;2023-02-12T01:25:41;7.80;67.30
7254;DHT22;4060;49.186;9.226;2023-02-12T01:28:10;7.80;67.40
7254;DHT22;4060;49.186;9.226;2023-02-12T01:30:39;7.80;67.30
7254;DHT22;4060;49.186;9.226;2023-02-12T01:33:09;7.80;67.40
7254;DHT22;4060;49.186;9.226;2023-02-12T01:35:38;7.80;67.40
7254;DHT22;4060;49.186;9.226;2023-02-12T01:38:10;7.80;67.30
7254;DHT22;4060;49.186;9.226;2023-02-12T01:40:39;7.80;67.30
7254;DHT22;4060;49.186;9.226;2023-02-12T01:43:11;7.80;67.30
7254;DHT22;4060;49.186;9.226;2023-02-12T01:45:50;7.80;67.30
7254;DHT22;4060;49.186;9.226;2023-02-12T01:48:25;7.80;67.30
7254;DHT22;4060;49.186;9.226;2023-02-12T01:50:57;7.80;67.30
7254;DHT22;4060;49.186;9.226;2023-02-12T01:53:33;7.80;67.30
7254;DHT22;4060;49.186;9.226;2023-02-12T01:56:05;7.80;67.20
7254;DHT22;4060;49.186;9.226;2023-02-12T01:58:37;7.80;67.20
7254;DHT22;4060;49.186;9.226;2023-02-12T02:01:10;7.80;67.20
7254;DHT22;4060;49.186;9.226;2023-02-12T02:03:44;7.80;67.20
7254;DHT22;4060;49.186;9.226;2023-02-12T02:06:16;7.80;67.20
7254;DHT22;4060;49.186;9.226;2023-02-12T02:08:50;7.80;67.30
7254;DHT22;4060;49.186;9.226;2023-02-12T02:11:19;7.80;67.30
7254;DHT22;4060;49.186;9.226;2023-02-12T02:14:05;7.80;67.30
7254;DHT22;4060;49.186;9.226;2023-02-12T02:17:00;7.70;67.20
7254;DHT22;4060;49.186;9.226;2023-02-12T02:22:35;7.80;67.20
7254;DHT22;4060;49.186;9.226;2023-02-12T02:25:38;7.70;67.10
7254;DHT22;4060;49.186;9.226;2023-02-12T02:28:35;7.70;67.10
7254;DHT22;4060;49.186;9.226;2023-02-12T02:31:13;7.80;67.40
7254;DHT22;4060;49.186;9.226;2023-02-12T02:33:52;7.70;67.20
7254;DHT22;4060;49.186;9.226;2023-02-12T02:36:29;7.80;67.40
7254;DHT22;4060;49.186;9.226;2023-02-12T02:39:08;7.70;67.30
7254;DHT22;4060;49.186;9.226;2023-02-12T02:41:47;7.80;67.40
7254;DHT22;4060;49.186;9.226;2023-02-12T02:44:23;7.70;67.30
7254;DHT22;4060;49.186;9.226;2023-02-12T02:46:57;7.80;67.40
7254;DHT22;4060;49.186;9.226;2023-02-12T02:49:34;7.80;67.30
7254;DHT22;4060;49.186;9.226;2023-02-12T02:52:09;7.70;67.20
7254;DHT22;4060;49.186;9.226;2023-02-12T02:54:43;7.70;67.20
7254;DHT22;4060;49.186;9.226;2023-02-12T02:57:15;7.70;67.20
7254;DHT22;4060;49.186;9.226;2023-02-12T02:59:48;7.80;67.30
7254;DHT22;4060;49.186;9.226;2023-02-12T03:02:24;7.70;67.20
7254;DHT22;4060;49.186;9.226;2023-02-12T03:04:56;7.70;67.20
7254;DHT22;4060;49.186;9.226;2023-02-12T03:07:30;7.70;67.20
7254;DHT22;4060;49.186;9.226;2023-02-12T03:10:04;7.70;67.20
7254;DHT22;4060;49.186;9.226;2023-02-12T03:12:38;7.70;67.20
7254;DHT22;4060;49.186;9.226;2023-02-12T03:15:12;7.70;67.20
7254;DHT22;4060;49.186;9.226;2023-02-12T03:17:46;7.70;67.20
7254;DHT22;4060;49.186;9.226;2023-02-12T03:20:19;7.70;67.20
7254;DHT22;4060;49.186;9.226;2023-02-12T03:22:53;7.70;67.10
7254;DHT22;4060;49.186;9.226;2023-02-12T03:25:27;7.70;67.20
7254;DHT22;4060;49.186;9.226;2023-02-12T03:28:03;7.70;67.20
7254;DHT22;4060;49.186;9.226;2023-02-12T03:30:41;7.70;67.20
7254;DHT22;4060;49.186;9.226;2023-02-12T03:33:20;7.70;67.30
7254;DHT22;4060;49.186;9.226;2023-02-12T03:35:56;7.70;67.30
7254;DHT22;4060;49.186;9.226;2023-02-12T03:38:35;7.70;67.20
7254;DHT22;4060;49.186;9.226;2023-02-12T03:41:10;7.70;67.20
7254;DHT22;4060;49.186;9.226;2023-02-12T03:43:49;7.70;68.00
7254;DHT22;4060;49.186;9.226;2023-02-12T03:46:24;7.70;67.30
7254;DHT22;4060;49.186;9.226;2023-02-12T03:49:01;7.70;67.20
7254;DHT22;4060;49.186;9.226;2023-02-12T03:51:34;7.70;67.30
7254;DHT22;4060;49.186;9.226;2023-02-12T03:54:06;7.70;67.30
7254;DHT22;4060;49.186;9.226;2023-02-12T03:56:39;7.70;67.20
7254;DHT22;4060;49.186;9.226;2023-02-12T03:59:10;7.70;67.20
7254;DHT22;4060;49.186;9.226;2023-02-12T04:01:40;7.70;67.20
7254;DHT22;4060;49.186;9.226;2023-02-12T04:04:14;7.70;67.20
7254;DHT22;4060;49.186;9.226;2023-02-12T04:06:45;7.70;67.20
7254;DHT22;4060;49.186;9.226;2023-02-12T04:09:16;7.70;67.30
7254;DHT22;4060;49.186;9.226;2023-02-12T04:12:00;7.70;67.20
7254;DHT22;4060;49.186;9.226;2023-02-12T04:14:37;7.70;67.20
7254;DHT22;4060;49.186;9.226;2023-02-12T04:17:14;7.70;67.20
7254;DHT22;4060;49.186;9.226;2023-02-12T04:20:01;7.70;67.30
7254;DHT22;4060;49.186;9.226;2023-02-12T04:22:42;7.70;67.20
7254;DHT22;4060;49.186;9.226;2023-02-12T04:25:25;7.70;67.20
7254;DHT22;4060;49.186;9.226;2023-02-12T04:28:02;7.70;67.20
7254;DHT22;4060;49.186;9.226;2023-02-12T04:30:37;7.70;67.20
7254;DHT22;4060;49.186;9.226;2023-02-12T04:33:13;7.70;67.30
7254;DHT22;4060;49.186;9.226;2023-02-12T04:35:48;7.70;67.30
7254;DHT22;4060;49.186;9.226;2023-02-12T04:38:22;7.70;68.00
7254;DHT22;4060;49.186;9.226;2023-02-12T04:40:55;7.70;67.30
7254;DHT22;4060;49.186;9.226;2023-02-12T04:43:29;7.70;67.30
7254;DHT22;4060;49.186;9.226;2023-02-12T04:45:58;7.70;67.30
7254;DHT22;4060;49.186;9.226;2023-02-12T04:48:27;7.70;67.30
7254;DHT22;4060;49.186;9.226;2023-02-12T04:50:58;7.70;67.20
7254;DHT22;4060;49.186;9.226;2023-02-12T04:53:27;7.70;67.20
7254;DHT22;4060;49.186;9.226;2023-02-12T04:55:57;7.70;67.20
7254;DHT22;4060;49.186;9.226;2023-02-12T04:58:26;7.70;67.20
7254;DHT22;4060;49.186;9.226;2023-02-12T05:00:58;7.70;67.30
7254;DHT22;4060;49.186;9.226;2023-02-12T05:03:27;7.70;67.40
7254;DHT22;4060;49.186;9.226;2023-02-12T05:06:02;7.70;67.50
7254;DHT22;4060;49.186;9.226;2023-02-12T05:08:31;7.70;67.70
7254;DHT22;4060;49.186;9.226;2023-02-12T05:11:04;7.70;67.60
7254;DHT22;4060;49.186;9.226;2023-02-12T05:13:34;7.70;67.70
7254;DHT22;4060;49.186;9.226;2023-02-12T05:16:04;7.70;67.60
7254;DHT22;4060;49.186;9.226;2023-02-12T05:18:34;7.70;67.70
7254;DHT22;4060;49.186;9.226;2023-02-12T05:21:06;7.70;67.70
7254;DHT22;4060;49.186;9.226;2023-02-12T05:23:36;7.70;67.80
7254;DHT22;4060;49.186;9.226;2023-02-12T05:26:08;7.70;67.70
7254;DHT22;4060;49.186;9.226;2023-02-12T05:28:39;7.70;67.70
7254;DHT22;4060;49.186;9.226;2023-02-12T05:31:12;7.70;67.70
7254;DHT22;4060;49.186;9.226;2023-02-12T05:33:42;7.70;67.70
7254;DHT22;4060;49.186;9.226;2023-02-12T05:36:15;7.70;67.70
7254;DHT22;4060;49.186;9.226;2023-02-12T05:38:45;7.70;67.60
7254;DHT22;4060;49.186;9.226;2023-02-12T05:41:16;7.70;67.60
7254;DHT22;4060;49.186;9.226;2023-02-12T05:43:47;7.70;67.60
7254;DHT22;4060;49.186;9.226;2023-02-12T05:46:16;7.70;67.60
7254;DHT22;4060;49.186;9.226;2023-02-12T05:48:46;7.70;67.70
7254;DHT22;4060;49.186;9.226;2023-02-12T05:51:23;7.70;67.70
7254;DHT22;4060;49.186;9.226;2023-02-12T05:53:57;7.60;67.50
7254;DHT22;4060;49.186;9.226;2023-02-12T05:56:28;7.70;67.60
7254;DHT22;4060;49.186;9.226;2023-02-12T05:59:00;7.70;67.60
7254;DHT22;4060;49.186;9.226;2023-02-12T06:01:31;7.70;67.60
7254;DHT22;4060;49.186;9.226;2023-02-12T06:04:02;7.70;67.60
7254;DHT22;4060;49.186;9.226;2023-02-12T06:06:33;7.60;67.50
7254;DHT22;4060;49.186;9.226;2023-02-12T06:09:03;7.70;67.60
7254;DHT22;4060;49.186;9.226;2023-02-12T06:11:33;7.60;67.50
7254;DHT22;4060;49.186;9.226;2023-02-12T06:14:04;7.60;67.50
7254;DHT22;4060;49.186;9.226;2023-02-12T06:16:34;7.70;67.90
7254;DHT22;4060;49.186;9.226;2023-02-12T06:19:04;7.60;67.50
7254;DHT22;4060;49.186;9.226;2023-02-12T06:21:36;7.60;67.50
7254;DHT22;4060;49.186;9.226;2023-02-12T06:24:05;7.60;67.50
7254;DHT22;4060;49.186;9.226;2023-02-12T06:26:35;7.60;67.50
7254;DHT22;4060;49.186;9.226;2023-02-12T06:29:04;7.60;67.50
7254;DHT22;4060;49.186;9.226;2023-02-12T06:31:35;7.60;67.40
7254;DHT22;4060;49.186;9.226;2023-02-12T06:34:05;7.60;67.40
7254;DHT22;4060;49.186;9.226;2023-02-12T06:36:39;7.60;67.40
7254;DHT22;4060;49.186;9.226;2023-02-12T06:39:09;7.60;67.50
7254;DHT22;4060;49.186;9.226;2023-02-12T06:41:38;7.60;67.50
7254;DHT22;4060;49.186;9.226;2023-02-12T06:44:09;7.60;67.50
7254;DHT22;4060;49.186;9.226;2023-02-12T06:46:38;7.60;67.50
7254;DHT22;4060;49.186;9.226;2023-02-12T06:49:09;7.60;67.50
7254;DHT22;4060;49.186;9.226;2023-02-12T06:51:43;7.60;67.50
7254;DHT22;4060;49.186;9.226;2023-02-12T06:54:14;7.60;67.50
7254;DHT22;4060;49.186;9.226;2023-02-12T06:56:43;7.60;67.50
7254;DHT22;4060;49.186;9.226;2023-02-12T06:59:14;7.60;67.50
7254;DHT22;4060;49.186;9.226;2023-02-12T07:01:43;7.60;67.50
7254;DHT22;4060;49.186;9.226;2023-02-12T07:04:13;7.60;67.50
7254;DHT22;4060;49.186;9.226;2023-02-12T07:06:44;7.60;67.50
7254;DHT22;4060;49.186;9.226;2023-02-12T07:09:13;7.60;67.50
7254;DHT22;4060;49.186;9.226;2023-02-12T07:11:42;7.60;67.50
7254;DHT22;4060;49.186;9.226;2023-02-12T07:14:13;7.60;67.50
7254;DHT22;4060;49.186;9.226;2023-02-12T07:16:43;7.60;67.50
7254;DHT22;4060;49.186;9.226;2023-02-12T07:19:13;7.60;67.50
7254;DHT22;4060;49.186;9.226;2023-02-12T07:21:45;7.60;67.50
7254;DHT22;4060;49.186;9.226;2023-02-12T07:24:15;7.60;67.50
7254;DHT22;4060;49.186;9.226;2023-02-12T07:26:45;7.60;67.60
7254;DHT22;4060;49.186;9.226;2023-02-12T07:29:16;7.60;67.60
7254;DHT22;4060;49.186;9.226;2023-02-12T07:31:45;7.60;67.50
7254;DHT22;4060;49.186;9.226;2023-02-12T07:34:15;7.60;67.50
7254;DHT22;4060;49.186;9.226;2023-02-12T07:36:46;7.60;67.50
7254;DHT22;4060;49.186;9.226;2023-02-12T07:39:15;7.60;67.60
7254;DHT22;4060;49.186;9.226;2023-02-12T07:41:45;7.60;67.60
7254;DHT22;4060;49.186;9.226;2023-02-12T07:44:14;7.70;67.70
7254;DHT22;4060;49.186;9.226;2023-02-12T07:46:44;7.60;67.60
7254;DHT22;4060;49.186;9.226;2023-02-12T07:49:16;7.60;67.70
7254;DHT22;4060;49.186;9.226;2023-02-12T07:51:48;7.60;67.70
7254;DHT22;4060;49.186;9.226;2023-02-12T07:54:17;7.60;67.60
7254;DHT22;4060;49.186;9.226;2023-02-12T07:56:47;7.60;67.70
7254;DHT22;4060;49.186;9.226;2023-02-12T07:59:18;7.60;67.60
7254;DHT22;4060;49.186;9.226;2023-02-12T08:01:49;7.60;67.60
7254;DHT22;4060;49.186;9.226;2023-02-12T08:04:20;7.60;67.60
7254;DHT22;4060;49.186;9.226;2023-02-12T08:06:54;7.70;67.70
7254;DHT22;4060;49.186;9.226;2023-02-12T08:09:25;7.70;67.80
7254;DHT22;4060;49.186;9.226;2023-02-12T08:11:57;7.60;67.60
7254;DHT22;4060;49.186;9.226;2023-02-12T08:14:26;7.60;67.70
7254;DHT22;4060;49.186;9.226;2023-02-12T08:16:56;7.60;67.70
7254;DHT22;4060;49.186;9.226;2023-02-12T08:19:25;7.70;67.80
7254;DHT22;4060;49.186;9.226;2023-02-12T08:21:57;7.70;67.80
7254;DHT22;4060;49.186;9.226;2023-02-12T08:24:28;7.60;67.70
7254;DHT22;4060;49.186;9.226;2023-02-12T08:26:58;7.70;67.80
7254;DHT22;4060;49.186;9.226;2023-02-12T08:29:29;7.70;67.80
7254;DHT22;4060;49.186;9.226;2023-02-12T08:31:59;7.70;67.80
7254;DHT22;4060;49.186;9.226;2023-02-12T08:34:30;7.70;67.80
7254;DHT22;4060;49.186;9.226;2023-02-12T08:37:04;7.70;67.90
7254;DHT22;4060;49.186;9.226;2023-02-12T08:39:34;7.70;67.90
7254;DHT22;4060;49.186;9.226;2023-02-12T08:42:04;7.70;67.90
7254;DHT22;4060;49.186;9.226;2023-02-12T08:44:33;7.70;67.90
7254;DHT22;4060;49.186;9.226;2023-02-12T08:47:03;7.70;67.90
7254;DHT22;4060;49.186;9.226;2023-02-12T08:49:33;7.70;67.90
7254;DHT22;4060;49.186;9.226;2023-02-12T08:52:04;7.70;67.90
7254;DHT22;4060;49.186;9.226;2023-02-12T08:54:34;7.70;67.90
7254;DHT22;4060;49.186;9.226;2023-02-12T08:57:05;7.70;68.00
7254;DHT22;4060;49.186;9.226;2023-02-12T08:59:34;7.70;68.00
7254;DHT22;4060;49.186;9.226;2023-02-12T09:02:03;7.70;68.00
7254;DHT22;4060;49.186;9.226;2023-02-12T09:04:35;7.80;68.10
7254;DHT22;4060;49.186;9.226;2023-02-12T09:07:07;7.80;68.10
7254;DHT22;4060;49.186;9.226;2023-02-12T09:09:36;7.80;68.10
7254;DHT22;4060;49.186;9.226;2023-02-12T09:12:06;7.80;68.10
7254;DHT22;4060;49.186;9.226;2023-02-12T09:14:35;7.80;68.10
7254;DHT22;4060;49.186;9.226;2023-02-12T09:17:05;7.80;68.10
7254;DHT22;4060;49.186;9.226;2023-02-12T09:19:34;7.80;68.10
7254;DHT22;4060;49.186;9.226;2023-02-12T09:22:06;7.80;68.10
7254;DHT22;4060;49.186;9.226;2023-02-12T09:24:37;7.80;68.20
7254;DHT22;4060;49.186;9.226;2023-02-12T09:27:06;7.80;68.20
7254;DHT22;4060;49.186;9.226;2023-02-12T09:29:36;7.80;68.20
7254;DHT22;4060;49.186;9.226;2023-02-12T09:32:20;7.80;68.20
7254;DHT22;4060;49.186;9.226;2023-02-12T09:34:50;7.80;68.20
7254;DHT22;4060;49.186;9.226;2023-02-12T09:37:21;7.80;68.30
7254;DHT22;4060;49.186;9.226;2023-02-12T09:39:51;7.80;68.30
7254;DHT22;4060;49.186;9.226;2023-02-12T09:42:39;7.90;68.40
7254;DHT22;4060;49.186;9.226;2023-02-12T09:45:18;7.90;68.40
7254;DHT22;4060;49.186;9.226;2023-02-12T09:47:54;7.90;68.40
7254;DHT22;4060;49.186;9.226;2023-02-12T09:50:44;7.90;68.50
7254;DHT22;4060;49.186;9.226;2023-02-12T09:53:18;7.90;68.50
7254;DHT22;4060;49.186;9.226;2023-02-12T09:55:49;7.90;68.50
7254;DHT22;4060;49.186;9.226;2023-02-12T09:58:23;7.90;69.30
7254;DHT22;4060;49.186;9.226;2023-02-12T10:00:57;7.90;68.60
7254;DHT22;4060;49.186;9.226;2023-02-12T10:03:27;7.90;68.50
7254;DHT22;4060;49.186;9.226;2023-02-12T10:06:00;8.00;68.70
7254;DHT22;4060;49.186;9.226;2023-02-12T10:08:57;7.90;68.60
7254;DHT22;4060;49.186;9.226;2023-02-12T10:11:41;8.00;68.70
7254;DHT22;4060;49.186;9.226;2023-02-12T10:14:40;8.00;68.70
7254;DHT22;4060;49.186;9.226;2023-02-12T10:17:22;8.00;68.80
7254;DHT22;4060;49.186;9.226;2023-02-12T10:20:24;8.00;68.70
7254;DHT22;4060;49.186;9.226;2023-02-12T10:23:16;8.00;68.80
7254;DHT22;4060;49.186;9.226;2023-02-12T10:25:53;8.00;68.80
7254;DHT22;4060;49.186;9.226;2023-02-12T10:28:27;8.00;68.90
7254;DHT22;4060;49.186;9.226;2023-02-12T10:31:02;8.00;68.90
7254;DHT22;4060;49.186;9.226;2023-02-12T10:33:35;8.10;69.10
7254;DHT22;4060;49.186;9.226;2023-02-12T10:36:18;8.00;68.90
7254;DHT22;4060;49.186;9.226;2023-02-12T10:38:57;8.10;69.10
7254;DHT22;4060;49.186;9.226;2023-02-12T10:41:32;8.10;69.10
7254;DHT22;4060;49.186;9.226;2023-02-12T10:44:03;8.10;69.10
7254;DHT22;4060;49.186;9.226;2023-02-12T10:46:33;8.10;69.10
7254;DHT22;4060;49.186;9.226;2023-02-12T10:49:03;8.10;69.20
7254;DHT22;4060;49.186;9.226;2023-02-12T10:51:44;8.20;69.30
7254;DHT22;4060;49.186;9.226;2023-02-12T10:54:40;8.10;69.20
7254;DHT22;4060;49.186;9.226;2023-02-12T10:57:22;8.20;69.40
7254;DHT22;4060;49.186;9.226;2023-02-12T10:59:54;8.20;69.40
7254;DHT22;4060;49.186;9.226;2023-02-12T11:02:27;8.20;69.40
7254;DHT22;4060;49.186;9.226;2023-02-12T11:04:58;8.20;69.40
7254;DHT22;4060;49.186;9.226;2023-02-12T11:07:28;8.20;69.40
7254;DHT22;4060;49.186;9.226;2023-02-12T11:09:57;8.20;69.40
7254;DHT22;4060;49.186;9.226;2023-02-12T11:12:34;8.20;69.50
7254;DHT22;4060;49.186;9.226;2023-02-12T11:15:12;8.30;69.60
7254;DHT22;4060;49.186;9.226;2023-02-12T11:17:45;8.30;69.60
7254;DHT22;4060;49.186;9.226;2023-02-12T11:20:26;8.30;69.70
7254;DHT22;4060;49.186;9.226;2023-02-12T11:22:58;8.30;69.70
7254;DHT22;4060;49.186;9.226;2023-02-12T11:25:30;8.30;69.70
7254;DHT22;4060;49.186;9.226;2023-02-12T11:28:11;8.40;69.90
7254;DHT22;4060;49.186;9.226;2023-02-12T11:30:51;8.40;69.90
7254;DHT22;4060;49.186;9.226;2023-02-12T11:33:25;8.40;69.90
7254;DHT22;4060;49.186;9.226;2023-02-12T11:35:57;8.40;69.90
7254;DHT22;4060;49.186;9.226;2023-02-12T11:38:32;8.40;70.00
7254;DHT22;4060;49.186;9.226;2023-02-12T11:41:17;8.50;70.10
7254;DHT22;4060;49.186;9.226;2023-02-12T11:43:51;8.50;70.10
7254;DHT22;4060;49.186;9.226;2023-02-12T11:46:23;8.50;70.10
7254;DHT22;4060;49.186;9.226;2023-02-12T11:48:53;8.50;70.10
7254;DHT22;4060;49.186;9.226;2023-02-12T11:51:25;8.50;70.20
7254;DHT22;4060;49.186;9.226;2023-02-12T11:53:57;8.50;70.20
7254;DHT22;4060;49.186;9.226;2023-02-12T11:56:41;8.60;70.30
7254;DHT22;4060;49.186;9.226;2023-02-12T11:59:26;8.60;70.30
7254;DHT22;4060;49.186;9.226;2023-02-12T12:02:00;8.60;70.30
7254;DHT22;4060;49.186;9.226;2023-02-12T12:04:33;8.60;70.30
7254;DHT22;4060;49.186;9.226;2023-02-12T12:07:10;8.70;70.50
7254;DHT22;4060;49.186;9.226;2023-02-12T12:09:46;8.70;70.50
7254;DHT22;4060;49.186;9.226;2023-02-12T12:12:20;8.70;70.50
7254;DHT22;4060;49.186;9.226;2023-02-12T12:14:54;8.70;70.60
7254;DHT22;4060;49.186;9.226;2023-02-12T12:17:47;8.80;70.60
7254;DHT22;4060;49.186;9.226;2023-02-12T12:20:40;8.80;70.60
7254;DHT22;4060;49.186;9.226;2023-02-12T12:23:16;8.80;70.50
7254;DHT22;4060;49.186;9.226;2023-02-12T12:25:49;8.80;70.60
7254;DHT22;4060;49.186;9.226;2023-02-12T12:28:29;8.90;70.60
7254;DHT22;4060;49.186;9.226;2023-02-12T12:31:08;8.90;70.70
7254;DHT22;4060;49.186;9.226;2023-02-12T12:33:42;9.00;70.70
7254;DHT22;4060;49.186;9.226;2023-02-12T12:36:40;9.00;70.70
7254;DHT22;4060;49.186;9.226;2023-02-12T12:39:18;9.00;70.70
7254;DHT22;4060;49.186;9.226;2023-02-12T12:44:57;9.10;70.80
7254;DHT22;4060;49.186;9.226;2023-02-12T12:47:43;9.10;70.70
7254;DHT22;4060;49.186;9.226;2023-02-12T12:50:33;9.10;70.70
7254;DHT22;4060;49.186;9.226;2023-02-12T12:53:17;9.10;70.70
7254;DHT22;4060;49.186;9.226;2023-02-12T12:56:19;9.20;70.70
7254;DHT22;4060;49.186;9.226;2023-02-12T12:59:12;9.20;70.70
7254;DHT22;4060;49.186;9.226;2023-02-12T13:05:21;9.30;70.80
7254;DHT22;4060;49.186;9.226;2023-02-12T13:08:01;9.30;71.30
7254;DHT22;4060;49.186;9.226;2023-02-12T13:10:35;9.40;71.50
7254;DHT22;4060;49.186;9.226;2023-02-12T13:13:20;9.50;71.80
7254;DHT22;4060;49.186;9.226;2023-02-12T13:16:01;9.60;71.80
7254;DHT22;4060;49.186;9.226;2023-02-12T13:18:42;9.70;71.50
7254;DHT22;4060;49.186;9.226;2023-02-12T13:21:31;9.80;71.20
7254;DHT22;4060;49.186;9.226;2023-02-12T13:24:31;9.80;71.00
7254;DHT22;4060;49.186;9.226;2023-02-12T13:27:07;9.80;70.90
7254;DHT22;4060;49.186;9.226;2023-02-12T13:29:43;9.80;70.70
7254;DHT22;4060;49.186;9.226;2023-02-12T13:32:18;9.80;70.60
7254;DHT22;4060;49.186;9.226;2023-02-12T13:34:53;9.80;70.60
7254;DHT22;4060;49.186;9.226;2023-02-12T13:37:40;9.80;70.60
7254;DHT22;4060;49.186;9.226;2023-02-12T13:40:15;9.80;70.70
7254;DHT22;4060;49.186;9.226;2023-02-12T13:42:49;9.80;70.60
7254;DHT22;4060;49.186;9.226;2023-02-12T13:45:29;9.80;70.50
7254;DHT22;4060;49.186;9.226;2023-02-12T13:48:27;9.80;70.60
7254;DHT22;4060;49.186;9.226;2023-02-12T13:51:11;9.90;70.80
7254;DHT22;4060;49.186;9.226;2023-02-12T13:53:56;9.90;70.70
7254;DHT22;4060;49.186;9.226;2023-02-12T13:56:38;9.90;70.70
7254;DHT22;4060;49.186;9.226;2023-02-12T13:59:43;9.90;70.60
7254;DHT22;4060;49.186;9.226;2023-02-12T14:05:30;10.00;69.40
7254;DHT22;4060;49.186;9.226;2023-02-12T14:08:02;10.00;69.40
7254;DHT22;4060;49.186;9.226;2023-02-12T14:10:40;10.00;69.30
7254;DHT22;4060;49.186;9.226;2023-02-12T14:13:17;10.00;69.40
7254;DHT22;4060;49.186;9.226;2023-02-12T14:15:50;10.00;69.30
7254;DHT22;4060;49.186;9.226;2023-02-12T14:18:32;10.00;69.30
7254;DHT22;4060;49.186;9.226;2023-02-12T14:24:46;10.10;69.70
7254;DHT22;4060;49.186;9.226;2023-02-12T14:27:31;10.20;69.80
7254;DHT22;4060;49.186;9.226;2023-02-12T14:33:24;10.30;69.50
7254;DHT22;4060;49.186;9.226;2023-02-12T14:36:13;10.30;69.40
7254;DHT22;4060;49.186;9.226;2023-02-12T14:39:01;10.40;69.30
7254;DHT22;4060;49.186;9.226;2023-02-12T14:41:36;10.40;69.30
7254;DHT22;4060;49.186;9.226;2023-02-12T14:44:42;10.40;69.20
7254;DHT22;4060;49.186;9.226;2023-02-12T14:50:19;10.40;69.00
7254;DHT22;4060;49.186;9.226;2023-02-12T14:53:05;10.40;69.00
7254;DHT22;4060;49.186;9.226;2023-02-12T14:55:35;10.40;69.10
7254;DHT22;4060;49.186;9.226;2023-02-12T14:58:16;10.40;69.10
7254;DHT22;4060;49.186;9.226;2023-02-12T15:00:53;10.50;69.30
7254;DHT22;4060;49.186;9.226;2023-02-12T15:03:36;10.50;69.30
7254;DHT22;4060;49.186;9.226;2023-02-12T15:06:13;10.50;69.40
7254;DHT22;4060;49.186;9.226;2023-02-12T15:08:49;10.60;69.40
7254;DHT22;4060;49.186;9.226;2023-02-12T15:11:32;10.60;69.30
7254;DHT22;4060;49.186;9.226;2023-02-12T15:14:06;10.70;69.30
7254;DHT22;4060;49.186;9.226;2023-02-12T15:16:44;10.70;69.10
7254;DHT22;4060;49.186;9.226;2023-02-12T15:19:25;10.70;69.10
7254;DHT22;4060;49.186;9.226;2023-02-12T15:21:58;10.70;69.10
7254;DHT22;4060;49.186;9.226;2023-02-12T15:24:27;10.70;68.90
7254;DHT22;4060;49.186;9.226;2023-02-12T15:26:58;10.70;68.90
7254;DHT22;4060;49.186;9.226;2023-02-12T15:29:29;10.70;68.80
7254;DHT22;4060;49.186;9.226;2023-02-12T15:32:03;10.70;68.80
7254;DHT22;4060;49.186;9.226;2023-02-12T15:34:36;10.70;68.80
7254;DHT22;4060;49.186;9.226;2023-02-12T15:37:15;10.70;68.80
7254;DHT22;4060;49.186;9.226;2023-02-12T15:39:47;10.70;68.80
7254;DHT22;4060;49.186;9.226;2023-02-12T15:42:29;10.70;68.70
7254;DHT22;4060;49.186;9.226;2023-02-12T15:45:10;10.70;68.70
7254;DHT22;4060;49.186;9.226;2023-02-12T15:48:03;10.70;68.70
7254;DHT22;4060;49.186;9.226;2023-02-12T15:50:47;10.70;68.70
7254;DHT22;4060;49.186;9.226;2023-02-12T15:53:17;10.70;68.70
7254;DHT22;4060;49.186;9.226;2023-02-12T15:55:49;10.70;68.70
7254;DHT22;4060;49.186;9.226;2023-02-12T15:58:23;10.70;68.70
7254;DHT22;4060;49.186;9.226;2023-02-12T16:00:54;10.70;68.70
7254;DHT22;4060;49.186;9.226;2023-02-12T16:03:33;10.70;68.60
7254;DHT22;4060;49.186;9.226;2023-02-12T16:06:05;10.70;68.60
7254;DHT22;4060;49.186;9.226;2023-02-12T16:08:38;10.70;68.70
7254;DHT22;4060;49.186;9.226;2023-02-12T16:11:10;10.70;68.50
7254;DHT22;4060;49.186;9.226;2023-02-12T16:13:45;10.70;68.50
7254;DHT22;4060;49.186;9.226;2023-02-12T16:16:23;10.70;68.50
7254;DHT22;4060;49.186;9.226;2023-02-12T16:19:18;10.70;68.50
7254;DHT22;4060;49.186;9.226;2023-02-12T16:21:50;10.80;68.70
7254;DHT22;4060;49.186;9.226;2023-02-12T16:24:29;10.70;68.60
7254;DHT22;4060;49.186;9.226;2023-02-12T16:27:08;10.70;68.60
7254;DHT22;4060;49.186;9.226;2023-02-12T16:29:48;10.70;68.60
7254;DHT22;4060;49.186;9.226;2023-02-12T16:32:38;10.70;68.50
7254;DHT22;4060;49.186;9.226;2023-02-12T16:35:25;10.70;68.50
7254;DHT22;4060;49.186;9.226;2023-02-12T16:38:03;10.70;68.60
7254;DHT22;4060;49.186;9.226;2023-02-12T16:41:14;10.70;68.60
7254;DHT22;4060;49.186;9.226;2023-02-12T16:43:49;10.70;68.60
7254;DHT22;4060;49.186;9.226;2023-02-12T16:46:19;10.70;68.60
7254;DHT22;4060;49.186;9.226;2023-02-12T16:48:50;10.70;68.50
7254;DHT22;4060;49.186;9.226;2023-02-12T16:51:24;10.70;68.50
7254;DHT22;4060;49.186;9.226;2023-02-12T16:53:55;10.70;68.50
7254;DHT22;4060;49.186;9.226;2023-02-12T16:56:27;10.70;68.40
7254;DHT22;4060;49.186;9.226;2023-02-12T16:58:58;10.70;68.40
7254;DHT22;4060;49.186;9.226;2023-02-12T17:01:30;10.70;68.30
7254;DHT22;4060;49.186;9.226;2023-02-12T17:04:03;10.70;68.30
7254;DHT22;4060;49.186;9.226;2023-02-12T17:06:35;10.70;68.60
7254;DHT22;4060;49.186;9.226;2023-02-12T17:09:04;10.80;69.20
7254;DHT22;4060;49.186;9.226;2023-02-12T17:11:33;10.90;69.40
7254;DHT22;4060;49.186;9.226;2023-02-12T17:14:02;11.10;69.50
7254;DHT22;4060;49.186;9.226;2023-02-12T17:16:32;11.30;69.40
7254;DHT22;4060;49.186;9.226;2023-02-12T17:19:01;11.50;69.10
7254;DHT22;4060;49.186;9.226;2023-02-12T17:21:35;11.60;68.60
7254;DHT22;4060;49.186;9.226;2023-02-12T17:24:17;11.80;68.20
7254;DHT22;4060;49.186;9.226;2023-02-12T17:26:49;11.90;67.70